Terminal Aerodrome Forecast
Issued by NWS

Home | Current Version | Previous Version | Text Only | Print | Product List | Glossary On
Versions: 1 2 3 4 5 6 7 8 9 10 11 12 13 14 15 16 17
000
FTAK31 PAJN 092300
TAFAWG
TAF
PAWG 092320Z 1000/1024 VRB03KT P6SM VCSH SCT010 BKN035 BKN050
     FM100900 00000KT 6SM BR FEW005 BKN010 OVC020
     FM101700 31004KT P6SM SCT015 BKN050
      AMD LTD TO CLD VIS AND WIND 1006/1015=

USA.gov is the U.S. government's official web portal to all federal, state and local government web resources and services.